Time;durP1;ratioP1;P1;durP2;ratioP2;P2;SDS_P1;SDS_P2;PMS_P1;PMS_P2;Temp;Humidity;BMP_temperature;BMP_pressure;BME280_temperature;BME280_humidity;BME280_pressure;Samples;Min_cycle;Max_cycle;Signal;HPM_P1;HPM_P2
2020/03/11 00:01:09;;;;;;;1.3;0.8;;;;;;;;;;;;;
2020/03/11 00:03:34;;;;;;;1.2;0.9;;;;;;;;;;;;;
2020/03/11 00:05:59;;;;;;;1.3;0.8;;;;;;;;;;;;;
2020/03/11 00:08:24;;;;;;;1.4;0.8;;;;;;;;;;;;;
2020/03/11 00:10:49;;;;;;;2.1;1.4;;;;;;;;;;;;;
2020/03/11 00:13:14;;;;;;;13;6.2;;;;;;;;;;;;;
2020/03/11 00:15:39;;;;;;;2.4;1.6;;;;;;;;;;;;;
2020/03/11 00:18:05;;;;;;;2.2;1.4;;;;;;;;;;;;;
2020/03/11 00:20:30;;;;;;;1.5;1;;;;;;;;;;;;;
2020/03/11 00:22:55;;;;;;;3.2;1.5;;;;;;;;;;;;;
2020/03/11 00:27:45;;;;;;;2.2;1.4;;;;;;;;;;;;;
2020/03/11 00:30:10;;;;;;;2.3;1.6;;;;;;;;;;;;;
2020/03/11 00:32:35;;;;;;;2;1.2;;;;;;;;;;;;;
2020/03/11 00:35:00;;;;;;;2.2;1.3;;;;;;;;;;;;;
2020/03/11 00:37:25;;;;;;;2;1.1;;;;;;;;;;;;;
2020/03/11 00:39:50;;;;;;;2.8;1.2;;;;;;;;;;;;;
2020/03/11 00:42:15;;;;;;;2.6;1.1;;;;;;;;;;;;;
2020/03/11 00:44:41;;;;;;;1.5;1;;;;;;;;;;;;;
2020/03/11 00:47:06;;;;;;;1;0.8;;;;;;;;;;;;;
2020/03/11 00:49:31;;;;;;;1.4;0.7;;;;;;;;;;;;;
2020/03/11 00:51:56;;;;;;;3;1.4;;;;;;;;;;;;;
2020/03/11 00:54:21;;;;;;;9;4.2;;;;;;;;;;;;;
2020/03/11 00:56:46;;;;;;;3.9;2.5;;;;;;;;;;;;;
2020/03/11 00:59:11;;;;;;;7.8;4.3;;;;;;;;;;;;;
2020/03/11 01:01:37;;;;;;;2.7;1.5;;;;;;;;;;;;;
2020/03/11 01:04:02;;;;;;;4.1;1.5;;;;;;;;;;;;;
2020/03/11 01:06:27;;;;;;;2;1.6;;;;;;;;;;;;;
2020/03/11 01:08:52;;;;;;;2.9;1.8;;;;;;;;;;;;;
2020/03/11 01:11:17;;;;;;;3.6;2.1;;;;;;;;;;;;;
2020/03/11 01:13:42;;;;;;;3;2.1;;;;;;;;;;;;;
2020/03/11 01:16:07;;;;;;;2.5;1.8;;;;;;;;;;;;;
2020/03/11 01:18:32;;;;;;;3;1.6;;;;;;;;;;;;;
2020/03/11 01:20:57;;;;;;;2.5;1.5;;;;;;;;;;;;;
2020/03/11 01:23:23;;;;;;;2.4;1.4;;;;;;;;;;;;;
2020/03/11 01:25:48;;;;;;;1.5;1.2;;;;;;;;;;;;;
2020/03/11 01:28:13;;;;;;;3.6;1.5;;;;;;;;;;;;;
2020/03/11 01:30:38;;;;;;;2.6;1.3;;;;;;;;;;;;;
2020/03/11 01:33:03;;;;;;;1.5;1;;;;;;;;;;;;;
2020/03/11 01:35:28;;;;;;;2.4;0.9;;;;;;;;;;;;;
2020/03/11 01:37:53;;;;;;;1.3;0.7;;;;;;;;;;;;;
2020/03/11 01:40:18;;;;;;;1.6;0.8;;;;;;;;;;;;;
2020/03/11 01:42:43;;;;;;;2.8;1.2;;;;;;;;;;;;;
2020/03/11 01:45:09;;;;;;;0.7;0.6;;;;;;;;;;;;;
2020/03/11 01:47:34;;;;;;;0.6;0.5;;;;;;;;;;;;;
2020/03/11 01:49:59;;;;;;;1.1;0.7;;;;;;;;;;;;;
2020/03/11 01:52:24;;;;;;;0.8;0.5;;;;;;;;;;;;;
2020/03/11 01:54:49;;;;;;;1.1;0.7;;;;;;;;;;;;;
2020/03/11 01:57:14;;;;;;;1.7;0.7;;;;;;;;;;;;;
2020/03/11 01:59:39;;;;;;;1.4;0.6;;;;;;;;;;;;;
2020/03/11 02:02:04;;;;;;;1;0.5;;;;;;;;;;;;;
2020/03/11 02:04:29;;;;;;;2.2;0.7;;;;;;;;;;;;;
2020/03/11 02:06:54;;;;;;;1.4;0.8;;;;;;;;;;;;;
2020/03/11 02:09:19;;;;;;;0.9;0.5;;;;;;;;;;;;;
2020/03/11 02:11:45;;;;;;;1.3;0.6;;;;;;;;;;;;;
2020/03/11 02:14:10;;;;;;;1;0.6;;;;;;;;;;;;;
2020/03/11 02:16:35;;;;;;;2;0.5;;;;;;;;;;;;;
2020/03/11 02:19:00;;;;;;;1.1;0.5;;;;;;;;;;;;;
2020/03/11 02:21:25;;;;;;;1.6;0.6;;;;;;;;;;;;;
2020/03/11 02:23:50;;;;;;;1.7;0.8;;;;;;;;;;;;;
2020/03/11 02:26:15;;;;;;;0.8;0.6;;;;;;;;;;;;;
2020/03/11 02:28:40;;;;;;;1.4;0.5;;;;;;;;;;;;;
2020/03/11 02:31:05;;;;;;;1.1;0.6;;;;;;;;;;;;;
2020/03/11 02:33:30;;;;;;;1.1;0.6;;;;;;;;;;;;;
2020/03/11 02:35:55;;;;;;;1.5;0.6;;;;;;;;;;;;;
2020/03/11 02:38:20;;;;;;;1.9;0.6;;;;;;;;;;;;;
2020/03/11 02:40:45;;;;;;;1.4;0.7;;;;;;;;;;;;;
2020/03/11 02:43:10;;;;;;;1.3;0.7;;;;;;;;;;;;;
2020/03/11 02:45:36;;;;;;;1.2;0.7;;;;;;;;;;;;;
2020/03/11 02:48:01;;;;;;;1.6;0.8;;;;;;;;;;;;;
2020/03/11 02:50:26;;;;;;;1.3;0.8;;;;;;;;;;;;;
2020/03/11 02:52:51;;;;;;;1.1;0.6;;;;;;;;;;;;;
2020/03/11 02:55:16;;;;;;;2.4;0.8;;;;;;;;;;;;;
2020/03/11 02:57:41;;;;;;;1;0.6;;;;;;;;;;;;;
2020/03/11 03:00:07;;;;;;;1.1;0.8;;;;;;;;;;;;;
2020/03/11 03:02:31;;;;;;;2.5;0.7;;;;;;;;;;;;;
2020/03/11 03:04:57;;;;;;;1.8;0.7;;;;;;;;;;;;;
2020/03/11 03:07:22;;;;;;;0.8;0.7;;;;;;;;;;;;;
2020/03/11 03:09:47;;;;;;;0.7;0.6;;;;;;;;;;;;;
2020/03/11 03:12:12;;;;;;;1.2;0.6;;;;;;;;;;;;;
2020/03/11 03:14:37;;;;;;;1.4;1;;;;;;;;;;;;;
2020/03/11 03:17:02;;;;;;;1.5;0.5;;;;;;;;;;;;;
2020/03/11 03:19:27;;;;;;;3.2;0.9;;;;;;;;;;;;;
2020/03/11 03:21:52;;;;;;;1.8;0.7;;;;;;;;;;;;;
2020/03/11 03:24:18;;;;;;;2;0.6;;;;;;;;;;;;;
2020/03/11 03:26:42;;;;;;;0.9;0.5;;;;;;;;;;;;;
2020/03/11 03:29:07;;;;;;;1.3;0.5;;;;;;;;;;;;;
2020/03/11 03:31:33;;;;;;;1.2;0.8;;;;;;;;;;;;;
2020/03/11 03:33:58;;;;;;;1.8;0.8;;;;;;;;;;;;;
2020/03/11 03:36:23;;;;;;;0.9;0.6;;;;;;;;;;;;;
2020/03/11 03:38:48;;;;;;;1.5;0.8;;;;;;;;;;;;;
2020/03/11 03:41:13;;;;;;;2.7;1;;;;;;;;;;;;;
2020/03/11 03:43:38;;;;;;;3.3;1.4;;;;;;;;;;;;;
2020/03/11 03:46:03;;;;;;;2.8;1.2;;;;;;;;;;;;;
2020/03/11 03:48:28;;;;;;;2.7;0.8;;;;;;;;;;;;;
2020/03/11 03:50:53;;;;;;;2.6;0.8;;;;;;;;;;;;;
2020/03/11 03:53:18;;;;;;;3.9;0.9;;;;;;;;;;;;;
2020/03/11 03:55:43;;;;;;;2.5;1;;;;;;;;;;;;;
2020/03/11 03:58:08;;;;;;;1.6;0.8;;;;;;;;;;;;;
2020/03/11 04:02:30;;;;;;;2.9;1.2;;;;;;;9.02;88.99707;937.7383;;;;
2020/03/11 04:04:55;;;;;;;2.3;1.1;;;;;;;8.97;89.21289;937.7531;;;;
2020/03/11 04:07:20;;;;;;;1.3;0.9;;;;;;;8.98;89.33984;937.8271;;;;
2020/03/11 04:09:45;;;;;;;1.8;0.9;;;;;;;9.04;89.12402;937.6448;;;;
2020/03/11 04:12:10;;;;;;;3.5;2.4;;;;;;;9.07;88.57324;937.6889;;;;
2020/03/11 04:14:35;;;;;;;1.4;0.8;;;;;;;9;89.11816;937.7202;;;;
2020/03/11 04:17:00;;;;;;;1.8;0.6;;;;;;;8.93;89.08008;937.6548;;;;
2020/03/11 04:19:25;;;;;;;2.9;0.6;;;;;;;8.81;89.67969;937.6951;;;;
2020/03/11 04:21:50;;;;;;;3.2;0.7;;;;;;;8.88;89.30859;937.6542;;;;
2020/03/11 04:24:16;;;;;;;1.7;0.6;;;;;;;8.85;89.48438;937.7014;;;;
2020/03/11 04:26:41;;;;;;;1.4;0.5;;;;;;;8.88;90.27539;937.6891;;;;
2020/03/11 04:29:06;;;;;;;1.9;0.6;;;;;;;8.74;90.51758;937.7033;;;;
2020/03/11 04:31:31;;;;;;;2.1;0.6;;;;;;;8.86;89.79199;937.7586;;;;
2020/03/11 04:33:56;;;;;;;0.8;0.6;;;;;;;8.9;89.31152;937.7744;;;;
2020/03/11 04:36:21;;;;;;;1.2;0.5;;;;;;;8.89;89.47852;937.6788;;;;
2020/03/11 04:38:46;;;;;;;2.2;0.8;;;;;;;8.7;90.20313;937.7361;;;;
2020/03/11 04:41:11;;;;;;;1.9;0.9;;;;;;;8.65;90.71484;937.6504;;;;
2020/03/11 04:43:36;;;;;;;2;0.9;;;;;;;8.77;89.67188;937.6705;;;;
2020/03/11 04:46:02;;;;;;;3.3;1;;;;;;;8.83;89.37793;937.6956;;;;
2020/03/11 04:48:27;;;;;;;2.5;0.8;;;;;;;8.78;89.78613;937.8309;;;;
2020/03/11 04:50:52;;;;;;;1.9;1;;;;;;;8.82;89.64746;937.7517;;;;
2020/03/11 04:53:17;;;;;;;2.2;1.2;;;;;;;8.86;89.35938;937.7395;;;;
2020/03/11 04:55:42;;;;;;;4.4;1.4;;;;;;;8.83;88.83105;937.7852;;;;
2020/03/11 04:58:07;;;;;;;2.2;1.1;;;;;;;8.71;89.78418;937.899;;;;
2020/03/11 05:00:32;;;;;;;1.3;1.1;;;;;;;8.71;89.41992;937.9045;;;;
2020/03/11 05:02:58;;;;;;;4.2;1.6;;;;;;;8.55;90.21582;937.6438;;;;
2020/03/11 05:05:23;;;;;;;3.5;1.5;;;;;;;8.6;90.47754;937.7866;;;;
2020/03/11 05:07:48;;;;;;;2.6;1.4;;;;;;;8.58;90.94922;937.8696;;;;
2020/03/11 05:10:13;;;;;;;2.8;1.6;;;;;;;8.7;89.97559;937.8814;;;;
2020/03/11 05:12:38;;;;;;;3.6;1.8;;;;;;;8.79;89.54883;937.8636;;;;
2020/03/11 05:15:03;;;;;;;2.6;1.6;;;;;;;8.68;90.07227;937.9501;;;;
2020/03/11 05:17:28;;;;;;;4.3;1.5;;;;;;;8.8;89.26855;937.8369;;;;
2020/03/11 05:19:53;;;;;;;4.4;1.8;;;;;;;8.61;89.90918;937.8978;;;;
2020/03/11 05:22:18;;;;;;;3.3;1.9;;;;;;;8.74;89.71191;937.8597;;;;
2020/03/11 05:24:44;;;;;;;3.3;2;;;;;;;8.71;89.58887;937.9814;;;;
2020/03/11 05:27:09;;;;;;;3.4;1.8;;;;;;;8.67;89.31055;937.9039;;;;
2020/03/11 05:29:34;;;;;;;3.6;2.6;;;;;;;8.65;89.89648;937.967;;;;
2020/03/11 05:31:59;;;;;;;4.8;2.3;;;;;;;8.68;89.42578;937.9628;;;;
2020/03/11 05:34:24;;;;;;;4.8;2.1;;;;;;;8.71;89.56836;938.03;;;;
2020/03/11 05:36:49;;;;;;;2.7;1.6;;;;;;;8.78;89.02441;937.9389;;;;
2020/03/11 05:39:14;;;;;;;2.8;1.4;;;;;;;8.65;89.19336;937.9188;;;;
2020/03/11 05:41:39;;;;;;;6.9;5.2;;;;;;;8.69;88.99609;937.9868;;;;
2020/03/11 05:44:05;;;;;;;7.2;6;;;;;;;8.69;89.2002;937.9582;;;;
2020/03/11 05:46:30;;;;;;;6.4;4.7;;;;;;;8.54;89.71387;938.2047;;;;
2020/03/11 05:48:55;;;;;;;4.7;2.6;;;;;;;8.46;90.54004;938.0669;;;;
2020/03/11 05:51:20;;;;;;;3.8;2.5;;;;;;;8.54;90.375;938.0128;;;;
2020/03/11 05:53:45;;;;;;;4.1;2.2;;;;;;;8.49;90.69141;938.2808;;;;
2020/03/11 05:56:10;;;;;;;3.3;1.8;;;;;;;8.53;90.4873;938.2109;;;;
2020/03/11 05:58:35;;;;;;;4.3;2.1;;;;;;;8.52;90.74512;938.1337;;;;
2020/03/11 06:01:00;;;;;;;4.9;2.9;;;;;;;8.52;90.87012;938.3384;;;;
2020/03/11 06:03:26;;;;;;;7.1;3.6;;;;;;;8.48;90.65723;938.3434;;;;
2020/03/11 06:05:51;;;;;;;3.1;2.1;;;;;;;8.32;91.77051;938.39;;;;
2020/03/11 06:08:16;;;;;;;2.8;2;;;;;;;8.47;91.48535;938.3606;;;;
2020/03/11 06:10:41;;;;;;;4.1;2.2;;;;;;;8.68;90.66504;938.3629;;;;
2020/03/11 06:13:06;;;;;;;4.4;2.2;;;;;;;8.74;90.7334;938.3257;;;;
2020/03/11 06:15:31;;;;;;;4.5;1.8;;;;;;;8.91;90.22168;938.3398;;;;
2020/03/11 06:17:56;;;;;;;6.4;2.9;;;;;;;8.96;90.09668;938.47;;;;
2020/03/11 06:20:21;;;;;;;4.8;2.1;;;;;;;8.99;89.42188;938.4269;;;;
2020/03/11 06:22:47;;;;;;;6.7;2.6;;;;;;;8.96;89.20898;938.385;;;;
2020/03/11 06:25:12;;;;;;;13;3.1;;;;;;;8.88;91.10547;938.4719;;;;
2020/03/11 06:27:37;;;;;;;10.2;2.9;;;;;;;8.98;90.51172;938.2783;;;;
2020/03/11 06:30:03;;;;;;;7.9;2.6;;;;;;;9.1;90.76367;938.4058;;;;
2020/03/11 06:32:28;;;;;;;9;2.7;;;;;;;9.42;89.39551;938.3688;;;;
2020/03/11 06:34:53;;;;;;;4.6;2.4;;;;;;;9.44;88.62695;938.4693;;;;
2020/03/11 06:37:18;;;;;;;7.3;3.5;;;;;;;9.56;88.26367;938.4971;;;;
2020/03/11 06:39:43;;;;;;;6.4;4.1;;;;;;;9.73;87.48926;938.498;;;;
2020/03/11 06:42:08;;;;;;;7.1;4.1;;;;;;;9.75;87.17578;938.577;;;;
2020/03/11 06:44:34;;;;;;;6.8;3.9;;;;;;;9.87;86.74219;938.5803;;;;
2020/03/11 06:46:59;;;;;;;5.2;2.8;;;;;;;9.74;87.55957;938.6135;;;;
2020/03/11 06:49:24;;;;;;;6;2.6;;;;;;;10.02;86.85254;938.5101;;;;
2020/03/11 06:51:49;;;;;;;4;2.4;;;;;;;10.15;85.65918;938.5283;;;;
2020/03/11 06:54:14;;;;;;;4.6;2.7;;;;;;;10.27;85.85352;938.5692;;;;
2020/03/11 06:56:39;;;;;;;23.3;14.2;;;;;;;10.4;85.42188;938.6557;;;;
2020/03/11 06:59:05;;;;;;;16.5;10.8;;;;;;;10.49;85.29199;938.7206;;;;
2020/03/11 07:01:30;;;;;;;12.8;7.3;;;;;;;10.58;84.91016;938.7645;;;;
2020/03/11 07:03:55;;;;;;;9.3;5.1;;;;;;;10.66;85.13184;938.7896;;;;
2020/03/11 07:06:21;;;;;;;9.6;5;;;;;;;10.91;83.83301;938.7444;;;;
2020/03/11 07:08:46;;;;;;;8;3.9;;;;;;;10.96;83.24902;938.7631;;;;
2020/03/11 07:11:11;;;;;;;4.5;2.9;;;;;;;11;82.4668;938.6575;;;;
2020/03/11 07:13:36;;;;;;;4.9;2.9;;;;;;;11.04;83.73145;938.5872;;;;
2020/03/11 07:16:01;;;;;;;7.9;4.8;;;;;;;10.76;84.51074;938.6885;;;;
2020/03/11 07:18:27;;;;;;;10.9;6.7;;;;;;;;;;;;;
2020/03/11 07:20:52;;;;;;;12.5;5.3;;;;;;;;;;;;;
2020/03/11 07:23:17;;;;;;;9.5;4.7;;;;;;;;;;;;;
2020/03/11 07:25:42;;;;;;;9.2;4.4;;;;;;;;;;;;;
2020/03/11 07:28:07;;;;;;;9.3;3.7;;;;;;;;;;;;;
2020/03/11 07:30:32;;;;;;;5;2.8;;;;;;;;;;;;;
2020/03/11 07:32:57;;;;;;;6.7;2.7;;;;;;;;;;;;;
2020/03/11 07:35:22;;;;;;;5.9;2.7;;;;;;;;;;;;;
2020/03/11 07:37:47;;;;;;;9.4;3;;;;;;;;;;;;;
2020/03/11 07:40:12;;;;;;;4.5;2.7;;;;;;;;;;;;;
2020/03/11 07:42:38;;;;;;;8.2;3.3;;;;;;;;;;;;;
2020/03/11 07:45:03;;;;;;;4.9;2.9;;;;;;;;;;;;;
2020/03/11 07:47:28;;;;;;;5.4;3.1;;;;;;;;;;;;;
2020/03/11 07:49:53;;;;;;;8;3.6;;;;;;;;;;;;;
2020/03/11 07:52:18;;;;;;;5;2.6;;;;;;;;;;;;;
2020/03/11 07:54:43;;;;;;;6.6;2.4;;;;;;;;;;;;;
2020/03/11 07:57:08;;;;;;;3;2.1;;;;;;;;;;;;;
2020/03/11 07:59:33;;;;;;;5.3;2.3;;;;;;;;;;;;;
2020/03/11 08:01:58;;;;;;;5.9;2.1;;;;;;;;;;;;;
2020/03/11 08:04:24;;;;;;;3.9;2;;;;;;;;;;;;;
2020/03/11 08:06:49;;;;;;;5;2.1;;;;;;;;;;;;;
2020/03/11 08:09:14;;;;;;;3.4;2.1;;;;;;;;;;;;;
2020/03/11 08:11:39;;;;;;;2.5;1.5;;;;;;;;;;;;;
2020/03/11 08:14:04;;;;;;;5;2.2;;;;;;;;;;;;;
2020/03/11 08:16:38;;;;;;;6.4;3;;;;;;;;;;;;;
2020/03/11 08:18:54;;;;;;;5.2;2.6;;;;;;;;;;;;;
2020/03/11 08:21:19;;;;;;;5.5;2.7;;;;;;;;;;;;;
2020/03/11 08:23:44;;;;;;;3.7;2;;;;;;;;;;;;;
2020/03/11 08:26:09;;;;;;;5.1;2.9;;;;;;;;;;;;;
2020/03/11 08:28:34;;;;;;;3.8;1.5;;;;;;;;;;;;;
2020/03/11 08:31:00;;;;;;;6.4;1.3;;;;;;;;;;;;;
2020/03/11 08:33:25;;;;;;;2.3;1.1;;;;;;;;;;;;;
2020/03/11 08:35:50;;;;;;;3.2;1.2;;;;;;;;;;;;;
2020/03/11 08:38:15;;;;;;;3.3;1.3;;;;;;;;;;;;;
2020/03/11 08:40:40;;;;;;;2.7;1.1;;;;;;;;;;;;;
2020/03/11 08:43:05;;;;;;;2.7;1;;;;;;;;;;;;;
2020/03/11 08:45:30;;;;;;;3.8;1;;;;;;;;;;;;;
2020/03/11 08:47:56;;;;;;;1.9;0.9;;;;;;;;;;;;;
2020/03/11 08:50:21;;;;;;;2.4;0.7;;;;;;;;;;;;;
2020/03/11 08:52:46;;;;;;;3.4;0.7;;;;;;;;;;;;;
2020/03/11 08:55:11;;;;;;;2.5;1;;;;;;;;;;;;;
2020/03/11 08:57:36;;;;;;;1.6;0.8;;;;;;;;;;;;;
2020/03/11 09:00:01;;;;;;;1.3;0.8;;;;;;;;;;;;;
2020/03/11 09:02:26;;;;;;;2.4;0.6;;;;;;;;;;;;;
2020/03/11 09:04:51;;;;;;;2.5;0.7;;;;;;;;;;;;;
2020/03/11 09:07:16;;;;;;;1.7;0.8;;;;;;;;;;;;;
2020/03/11 09:09:41;;;;;;;1.7;0.6;;;;;;;;;;;;;
2020/03/11 09:12:07;;;;;;;1;0.7;;;;;;;;;;;;;
2020/03/11 09:14:32;;;;;;;1.2;0.7;;;;;;;;;;;;;
2020/03/11 09:16:57;;;;;;;1.7;0.9;;;;;;;;;;;;;
2020/03/11 09:19:22;;;;;;;1.4;0.4;;;;;;;;;;;;;
2020/03/11 09:21:47;;;;;;;0.5;0.4;;;;;;;;;;;;;
2020/03/11 09:24:12;;;;;;;0.5;0.4;;;;;;;;;;;;;
2020/03/11 09:26:37;;;;;;;2.4;0.7;;;;;;;;;;;;;
2020/03/11 09:29:02;;;;;;;3.4;1;;;;;;;;;;;;;
2020/03/11 09:31:28;;;;;;;4.4;0.9;;;;;;;;;;;;;
2020/03/11 09:33:53;;;;;;;2.7;0.4;;;;;;;;;;;;;
2020/03/11 09:36:18;;;;;;;1.4;0.4;;;;;;;;;;;;;
2020/03/11 09:38:43;;;;;;;0.6;0.3;;;;;;;;;;;;;
2020/03/11 09:41:08;;;;;;;2;0.6;;;;;;;;;;;;;
2020/03/11 09:43:33;;;;;;;2.4;0.3;;;;;;;;;;;;;
2020/03/11 09:45:58;;;;;;;0.9;0.3;;;;;;;;;;;;;
2020/03/11 09:48:23;;;;;;;2.3;0.4;;;;;;;;;;;;;
2020/03/11 09:50:48;;;;;;;3.2;0.6;;;;;;;;;;;;;
2020/03/11 09:53:13;;;;;;;1.2;0.4;;;;;;;;;;;;;
2020/03/11 09:55:39;;;;;;;6.1;0.8;;;;;;;;;;;;;
2020/03/11 09:58:04;;;;;;;1.1;0.3;;;;;;;;;;;;;
2020/03/11 10:00:29;;;;;;;3.4;0.4;;;;;;;;;;;;;
2020/03/11 10:02:54;;;;;;;4.1;0.7;;;;;;;;;;;;;
2020/03/11 10:05:19;;;;;;;10.7;1.2;;;;;;;;;;;;;
2020/03/11 10:07:44;;;;;;;3.7;0.6;;;;;;;;;;;;;
2020/03/11 10:10:09;;;;;;;0.7;0.3;;;;;;;;;;;;;
2020/03/11 10:12:34;;;;;;;14.9;1.8;;;;;;;;;;;;;
2020/03/11 10:14:59;;;;;;;30;2.9;;;;;;;;;;;;;
2020/03/11 10:17:24;;;;;;;5.2;0.8;;;;;;;;;;;;;
2020/03/11 10:19:49;;;;;;;1.1;0.4;;;;;;;;;;;;;
2020/03/11 10:22:14;;;;;;;2.3;0.5;;;;;;;;;;;;;
2020/03/11 10:24:40;;;;;;;1.3;0.4;;;;;;;;;;;;;
2020/03/11 10:27:05;;;;;;;2.9;0.5;;;;;;;;;;;;;
2020/03/11 10:29:30;;;;;;;2.8;0.5;;;;;;;;;;;;;
2020/03/11 10:31:55;;;;;;;13.7;1.5;;;;;;;;;;;;;
2020/03/11 10:34:20;;;;;;;6.5;1.1;;;;;;;;;;;;;
2020/03/11 10:36:45;;;;;;;8;1.3;;;;;;;;;;;;;
2020/03/11 10:39:10;;;;;;;6.2;1;;;;;;;;;;;;;
2020/03/11 10:41:36;;;;;;;1.9;0.2;;;;;;;;;;;;;
2020/03/11 10:44:01;;;;;;;6.2;0.9;;;;;;;;;;;;;
2020/03/11 10:46:26;;;;;;;4.9;0.6;;;;;;;;;;;;;
2020/03/11 10:48:51;;;;;;;4.4;0.5;;;;;;;;;;;;;
2020/03/11 10:51:16;;;;;;;16.6;2.5;;;;;;;;;;;;;
2020/03/11 10:53:42;;;;;;;3.4;0.8;;;;;;;;;;;;;
2020/03/11 10:56:07;;;;;;;9.4;1.4;;;;;;;;;;;;;
2020/03/11 10:58:32;;;;;;;7.8;0.8;;;;;;;;;;;;;
2020/03/11 11:00:57;;;;;;;2.3;0.3;;;;;;;;;;;;;
2020/03/11 11:03:22;;;;;;;6.4;0.8;;;;;;;;;;;;;
2020/03/11 11:05:47;;;;;;;3.7;0.8;;;;;;;;;;;;;
2020/03/11 11:08:12;;;;;;;2.2;0.6;;;;;;;;;;;;;
2020/03/11 11:10:38;;;;;;;4.7;0.7;;;;;;;;;;;;;
2020/03/11 11:13:03;;;;;;;6.8;0.8;;;;;;;;;;;;;
2020/03/11 11:15:28;;;;;;;8.4;0.6;;;;;;;;;;;;;
2020/03/11 11:17:53;;;;;;;0.9;0.3;;;;;;;;;;;;;
2020/03/11 11:20:18;;;;;;;10.9;1.1;;;;;;;;;;;;;
2020/03/11 11:22:43;;;;;;;1;0.3;;;;;;;;;;;;;
2020/03/11 11:25:08;;;;;;;1.8;0.3;;;;;;;;;;;;;
2020/03/11 11:27:34;;;;;;;3.4;0.3;;;;;;;;;;;;;
2020/03/11 11:29:59;;;;;;;0.9;0.3;;;;;;;;;;;;;
2020/03/11 11:32:24;;;;;;;1.9;0.3;;;;;;;;;;;;;
2020/03/11 11:34:49;;;;;;;2.8;0.5;;;;;;;;;;;;;
2020/03/11 11:37:14;;;;;;;4.2;0.5;;;;;;;;;;;;;
2020/03/11 11:39:39;;;;;;;2.2;0.3;;;;;;;;;;;;;
2020/03/11 11:42:32;;;;;;;0.6;0.3;;;;;;;;;;;;;
2020/03/11 11:44:29;;;;;;;1.4;0.3;;;;;;;;;;;;;
2020/03/11 11:46:55;;;;;;;2.3;0.4;;;;;;;;;;;;;
2020/03/11 11:49:20;;;;;;;1.1;0.2;;;;;;;;;;;;;
2020/03/11 11:51:45;;;;;;;1.9;0.3;;;;;;;;;;;;;
2020/03/11 11:54:10;;;;;;;3.6;0.5;;;;;;;;;;;;;
2020/03/11 11:56:35;;;;;;;1.5;0.3;;;;;;;;;;;;;
2020/03/11 11:59:00;;;;;;;1.5;0.3;;;;;;;;;;;;;
2020/03/11 12:01:25;;;;;;;0.4;0.1;;;;;;;;;;;;;
2020/03/11 12:03:50;;;;;;;15.5;1.5;;;;;;;;;;;;;
2020/03/11 12:06:15;;;;;;;1.4;0.2;;;;;;;;;;;;;
2020/03/11 12:08:41;;;;;;;1;0.3;;;;;;;;;;;;;
2020/03/11 12:11:06;;;;;;;1;0.3;;;;;;;;;;;;;
2020/03/11 12:13:31;;;;;;;0.3;0.2;;;;;;;;;;;;;
2020/03/11 12:15:56;;;;;;;1.1;0.2;;;;;;;;;;;;;
2020/03/11 12:18:21;;;;;;;3.7;0.5;;;;;;;;;;;;;
2020/03/11 12:20:46;;;;;;;3.5;0.4;;;;;;;;;;;;;
2020/03/11 12:23:11;;;;;;;0.2;0.2;;;;;;;;;;;;;
2020/03/11 12:25:36;;;;;;;2.6;0.4;;;;;;;;;;;;;
2020/03/11 12:28:02;;;;;;;2.7;0.4;;;;;;;;;;;;;
2020/03/11 12:30:27;;;;;;;1.4;0.3;;;;;;;;;;;;;
2020/03/11 12:32:52;;;;;;;0.7;0.2;;;;;;;;;;;;;
2020/03/11 12:35:17;;;;;;;0.8;0.2;;;;;;;;;;;;;
2020/03/11 12:37:42;;;;;;;2.3;0.4;;;;;;;;;;;;;
2020/03/11 12:40:07;;;;;;;2;0.2;;;;;;;;;;;;;
2020/03/11 12:42:32;;;;;;;0.2;0.1;;;;;;;;;;;;;
2020/03/11 12:44:58;;;;;;;5.6;0.3;;;;;;;;;;;;;
2020/03/11 12:47:23;;;;;;;0.5;0.1;;;;;;;;;;;;;
2020/03/11 12:49:48;;;;;;;4.1;0.5;;;;;;;;;;;;;
2020/03/11 12:52:13;;;;;;;6.8;0.5;;;;;;;;;;;;;
2020/03/11 12:54:38;;;;;;;2.4;0.5;;;;;;;;;;;;;
2020/03/11 12:57:03;;;;;;;0.5;0.2;;;;;;;;;;;;;
2020/03/11 12:59:28;;;;;;;0.9;0.3;;;;;;;;;;;;;
2020/03/11 13:01:53;;;;;;;1.6;0.3;;;;;;;;;;;;;
2020/03/11 13:04:18;;;;;;;0.5;0.2;;;;;;;;;;;;;
2020/03/11 13:06:43;;;;;;;2.5;0.4;;;;;;;;;;;;;
2020/03/11 13:09:08;;;;;;;1.7;0.4;;;;;;;;;;;;;
2020/03/11 13:11:34;;;;;;;1.5;0.4;;;;;;;;;;;;;
2020/03/11 13:13:59;;;;;;;0.8;0.2;;;;;;;;;;;;;
2020/03/11 13:16:24;;;;;;;2.4;0.4;;;;;;;;;;;;;
2020/03/11 13:18:49;;;;;;;3.1;0.3;;;;;;;;;;;;;
2020/03/11 13:21:14;;;;;;;0.6;0.2;;;;;;;;;;;;;
2020/03/11 13:23:39;;;;;;;1.9;0.2;;;;;;;;;;;;;
2020/03/11 13:26:04;;;;;;;1.3;0.2;;;;;;;;;;;;;
2020/03/11 13:28:29;;;;;;;3;0.7;;;;;;;;;;;;;
2020/03/11 13:30:54;;;;;;;0.4;0.2;;;;;;;;;;;;;
2020/03/11 13:33:22;;;;;;;2.3;0.2;;;;;;;;;;;;;
2020/03/11 13:35:45;;;;;;;1.6;0.3;;;;;;;;;;;;;
2020/03/11 13:38:10;;;;;;;4.2;0.7;;;;;;;;;;;;;
2020/03/11 13:40:35;;;;;;;3.6;0.4;;;;;;;;;;;;;
2020/03/11 13:43:00;;;;;;;12;0.9;;;;;;;;;;;;;
2020/03/11 13:45:25;;;;;;;2.9;0.6;;;;;;;;;;;;;
2020/03/11 13:47:50;;;;;;;4.6;0.5;;;;;;;;;;;;;
2020/03/11 13:50:15;;;;;;;4.6;0.6;;;;;;;;;;;;;
2020/03/11 13:52:41;;;;;;;5.5;0.7;;;;;;;;;;;;;
2020/03/11 13:55:06;;;;;;;0.6;0.2;;;;;;;;;;;;;
2020/03/11 13:57:31;;;;;;;2.2;0.3;;;;;;;;;;;;;
2020/03/11 13:59:56;;;;;;;1.1;0.3;;;;;;;;;;;;;
2020/03/11 14:02:21;;;;;;;5.3;0.6;;;;;;;;;;;;;
2020/03/11 14:04:46;;;;;;;2;0.2;;;;;;;;;;;;;
2020/03/11 14:07:11;;;;;;;1.9;0.4;;;;;;;;;;;;;
2020/03/11 14:09:36;;;;;;;1.7;0.4;;;;;;;;;;;;;
2020/03/11 14:12:01;;;;;;;1.4;0.3;;;;;;;;;;;;;
2020/03/11 14:14:27;;;;;;;3.1;0.4;;;;;;;;;;;;;
2020/03/11 14:16:52;;;;;;;2.4;0.6;;;;;;;;;;;;;
2020/03/11 14:19:17;;;;;;;12.7;0.6;;;;;;;;;;;;;
2020/03/11 14:21:42;;;;;;;5.4;0.5;;;;;;;;;;;;;
2020/03/11 14:24:07;;;;;;;3.3;0.4;;;;;;;;;;;;;
2020/03/11 14:26:32;;;;;;;5.5;0.6;;;;;;;;;;;;;
2020/03/11 14:28:57;;;;;;;1.4;0.4;;;;;;;;;;;;;
2020/03/11 14:31:22;;;;;;;10.4;0.7;;;;;;;;;;;;;
2020/03/11 14:33:47;;;;;;;21.7;1.9;;;;;;;;;;;;;
2020/03/11 14:36:12;;;;;;;6.8;0.8;;;;;;;;;;;;;
2020/03/11 14:38:37;;;;;;;4.3;0.5;;;;;;;;;;;;;
2020/03/11 14:41:02;;;;;;;1.7;0.3;;;;;;;;;;;;;
2020/03/11 14:43:27;;;;;;;1.4;0.2;;;;;;;;;;;;;
2020/03/11 14:45:52;;;;;;;3;0.3;;;;;;;;;;;;;
2020/03/11 14:48:17;;;;;;;3.2;0.4;;;;;;;;;;;;;
2020/03/11 14:50:43;;;;;;;5.3;0.8;;;;;;;;;;;;;
2020/03/11 14:53:08;;;;;;;9.2;1.3;;;;;;;;;;;;;
2020/03/11 14:55:33;;;;;;;4.7;0.8;;;;;;;;;;;;;
2020/03/11 14:57:58;;;;;;;9.4;1.5;;;;;;;;;;;;;
2020/03/11 15:00:24;;;;;;;0.5;0.2;;;;;;;;;;;;;
2020/03/11 15:02:48;;;;;;;6.5;1;;;;;;;;;;;;;
2020/03/11 15:05:14;;;;;;;6.6;0.9;;;;;;;;;;;;;
2020/03/11 15:07:39;;;;;;;9.2;1.3;;;;;;;;;;;;;
2020/03/11 15:10:04;;;;;;;5.4;0.9;;;;;;;;;;;;;
2020/03/11 15:12:29;;;;;;;2.6;0.6;;;;;;;;;;;;;
2020/03/11 15:14:54;;;;;;;4.5;0.7;;;;;;;;;;;;;
2020/03/11 15:17:19;;;;;;;2.7;0.6;;;;;;;;;;;;;
2020/03/11 15:19:44;;;;;;;2.2;0.6;;;;;;;;;;;;;
2020/03/11 15:22:10;;;;;;;4.8;0.7;;;;;;;;;;;;;
2020/03/11 15:24:35;;;;;;;5;0.8;;;;;;;;;;;;;
2020/03/11 15:27:00;;;;;;;2.5;0.5;;;;;;;;;;;;;
2020/03/11 15:29:25;;;;;;;7.4;1.3;;;;;;;;;;;;;
2020/03/11 15:31:50;;;;;;;5.1;1.5;;;;;;;;;;;;;
2020/03/11 15:34:16;;;;;;;6.3;1.4;;;;;;;;;;;;;
2020/03/11 15:36:41;;;;;;;5.1;0.9;;;;;;;;;;;;;
2020/03/11 15:39:06;;;;;;;5.9;0.7;;;;;;;;;;;;;
2020/03/11 15:41:31;;;;;;;1.5;0.4;;;;;;;;;;;;;
2020/03/11 15:43:56;;;;;;;3.4;0.7;;;;;;;;;;;;;
2020/03/11 15:46:21;;;;;;;6.9;0.7;;;;;;;;;;;;;
2020/03/11 15:48:46;;;;;;;2.9;0.5;;;;;;;;;;;;;
2020/03/11 15:51:11;;;;;;;2.4;0.6;;;;;;;;;;;;;
2020/03/11 15:53:36;;;;;;;5.5;0.9;;;;;;;;;;;;;
2020/03/11 15:56:02;;;;;;;9.9;1.6;;;;;;;;;;;;;
2020/03/11 15:58:27;;;;;;;5.8;0.9;;;;;;;;;;;;;
2020/03/11 16:00:52;;;;;;;1.1;0.7;;;;;;;;;;;;;
2020/03/11 16:03:17;;;;;;;2.5;0.5;;;;;;;;;;;;;
2020/03/11 16:05:42;;;;;;;18.2;1.6;;;;;;;;;;;;;
2020/03/11 16:08:07;;;;;;;3.1;0.6;;;;;;;;;;;;;
2020/03/11 16:10:32;;;;;;;8.4;1.5;;;;;;;;;;;;;
2020/03/11 16:12:57;;;;;;;3.3;1.4;;;;;;;;;;;;;
2020/03/11 16:15:23;;;;;;;7.5;1.4;;;;;;;;;;;;;
2020/03/11 16:17:48;;;;;;;14;1.8;;;;;;;;;;;;;
2020/03/11 16:20:13;;;;;;;2.8;0.7;;;;;;;;;;;;;
2020/03/11 16:22:38;;;;;;;5;1;;;;;;;;;;;;;
2020/03/11 16:25:03;;;;;;;7.4;2.5;;;;;;;;;;;;;
2020/03/11 16:27:29;;;;;;;12.8;1.7;;;;;;;;;;;;;
2020/03/11 16:29:54;;;;;;;16.5;9.4;;;;;;;;;;;;;
2020/03/11 16:32:19;;;;;;;2.3;1;;;;;;;;;;;;;
2020/03/11 16:34:44;;;;;;;7.6;1.4;;;;;;;;;;;;;
2020/03/11 16:37:09;;;;;;;6.7;1.6;;;;;;;;;;;;;
2020/03/11 16:39:34;;;;;;;18;2.1;;;;;;;;;;;;;
2020/03/11 16:41:59;;;;;;;16.7;2.3;;;;;;;;;;;;;
2020/03/11 16:44:24;;;;;;;21.5;2.9;;;;;;;;;;;;;
2020/03/11 16:46:49;;;;;;;19;2.1;;;;;;;;;;;;;
2020/03/11 16:49:14;;;;;;;6.8;1.4;;;;;;;;;;;;;
2020/03/11 16:51:39;;;;;;;7.8;2.3;;;;;;;;;;;;;
2020/03/11 16:54:04;;;;;;;5.8;1.9;;;;;;;;;;;;;
2020/03/11 16:56:30;;;;;;;15.7;3.9;;;;;;;;;;;;;
2020/03/11 16:58:55;;;;;;;10.1;2.2;;;;;;;;;;;;;
2020/03/11 17:01:20;;;;;;;8.5;4;;;;;;;;;;;;;
2020/03/11 17:03:45;;;;;;;11.3;3.9;;;;;;;;;;;;;
2020/03/11 17:06:11;;;;;;;20.3;3.7;;;;;;;;;;;;;
2020/03/11 17:08:36;;;;;;;17.2;3.2;;;;;;;;;;;;;
2020/03/11 17:11:01;;;;;;;5.2;1.7;;;;;;;;;;;;;
2020/03/11 17:13:26;;;;;;;6.4;2.4;;;;;;;;;;;;;
2020/03/11 17:15:51;;;;;;;11.4;2.5;;;;;;;;;;;;;
2020/03/11 17:18:17;;;;;;;12.1;3.4;;;;;;;;;;;;;
2020/03/11 17:20:41;;;;;;;15.6;3.3;;;;;;;;;;;;;
2020/03/11 17:23:06;;;;;;;10.2;4.1;;;;;;;;;;;;;
2020/03/11 17:25:32;;;;;;;8.4;4.2;;;;;;;;;;;;;
2020/03/11 17:27:57;;;;;;;28.2;8.9;;;;;;;;;;;;;
2020/03/11 17:30:22;;;;;;;17.5;9.3;;;;;;;;;;;;;
2020/03/11 17:32:47;;;;;;;19.1;9;;;;;;;;;;;;;
2020/03/11 17:35:12;;;;;;;14.1;8.1;;;;;;;;;;;;;
2020/03/11 17:37:37;;;;;;;14.9;10;;;;;;;;;;;;;
2020/03/11 17:40:02;;;;;;;24;7.4;;;;;;;;;;;;;
2020/03/11 17:42:27;;;;;;;23.9;12.5;;;;;;;;;;;;;
2020/03/11 17:44:52;;;;;;;17.5;7.8;;;;;;;;;;;;;
2020/03/11 17:47:18;;;;;;;14.4;3.8;;;;;;;;;;;;;
2020/03/11 17:49:43;;;;;;;13.7;3.7;;;;;;;;;;;;;
2020/03/11 17:52:08;;;;;;;15.4;7.6;;;;;;;;;;;;;
2020/03/11 17:54:33;;;;;;;33.5;21.1;;;;;;;;;;;;;
2020/03/11 17:56:58;;;;;;;30.1;18.3;;;;;;;;;;;;;
2020/03/11 17:59:23;;;;;;;25.5;9.9;;;;;;;;;;;;;
2020/03/11 18:01:48;;;;;;;15.4;7.4;;;;;;;;;;;;;
2020/03/11 18:04:13;;;;;;;26.4;7.6;;;;;;;;;;;;;
2020/03/11 18:06:39;;;;;;;19;7;;;;;;;;;;;;;
2020/03/11 18:09:04;;;;;;;33.6;7.9;;;;;;;;;;;;;
2020/03/11 18:11:29;;;;;;;33.8;8;;;;;;;;;;;;;
2020/03/11 18:13:54;;;;;;;34.6;8.9;;;;;;;;;;;;;
2020/03/11 18:16:19;;;;;;;7.4;2.6;;;;;;;;;;;;;
2020/03/11 18:18:44;;;;;;;10.3;2.5;;;;;;;;;;;;;
2020/03/11 18:21:11;;;;;;;13;3;;;;;;;;;;;;;
2020/03/11 18:23:36;;;;;;;9.6;3;;;;;;;;;;;;;
2020/03/11 18:26:01;;;;;;;23.4;10.4;;;;;;;;;;;;;
2020/03/11 18:28:26;;;;;;;24.5;10.1;;;;;;;;;;;;;
2020/03/11 18:30:51;;;;;;;76.4;39.9;;;;;;;;;;;;;
2020/03/11 18:33:16;;;;;;;59.3;31.6;;;;;;;;;;;;;
2020/03/11 18:35:41;;;;;;;23.9;10.2;;;;;;;;;;;;;
2020/03/11 18:38:06;;;;;;;8;4.8;;;;;;;;;;;;;
2020/03/11 18:40:31;;;;;;;10.6;5.7;;;;;;;;;;;;;
2020/03/11 18:42:57;;;;;;;12.9;6.4;;;;;;;;;;;;;
2020/03/11 18:45:22;;;;;;;12.4;5.6;;;;;;;;;;;;;
2020/03/11 18:47:47;;;;;;;10.4;5.2;;;;;;;;;;;;;
2020/03/11 18:50:12;;;;;;;12;7.5;;;;;;;;;;;;;
2020/03/11 18:52:37;;;;;;;14.6;7.2;;;;;;;;;;;;;
2020/03/11 18:55:02;;;;;;;18.2;8.8;;;;;;;;;;;;;
2020/03/11 18:57:27;;;;;;;17.3;7.6;;;;;;;;;;;;;
2020/03/11 18:59:52;;;;;;;9.4;5.5;;;;;;;;;;;;;
2020/03/11 19:02:17;;;;;;;13.9;8.2;;;;;;;;;;;;;
2020/03/11 19:04:42;;;;;;;7.7;4.3;;;;;;;;;;;;;
2020/03/11 19:07:07;;;;;;;7.7;4.9;;;;;;;;;;;;;